sensor_id;sensor_type;location;lat;lon;timestamp;pressure;altitude;pressure_sealevel;temperature;humidity
73003;BME280;61184;54.356;-8.550;2022-09-29T00:00:04;100617.95;;;22.90;33.54
73003;BME280;61184;54.356;-8.550;2022-09-29T00:02:28;100618.42;;;23.16;33.53
73003;BME280;61184;54.356;-8.550;2022-09-29T00:04:54;100618.83;;;22.72;33.74
73003;BME280;61184;54.356;-8.550;2022-09-29T00:07:19;100617.08;;;23.00;33.68
73003;BME280;61184;54.356;-8.550;2022-09-29T00:09:45;100615.65;;;23.11;33.53
73003;BME280;61184;54.356;-8.550;2022-09-29T00:12:10;100613.84;;;22.78;33.93
73003;BME280;61184;54.356;-8.550;2022-09-29T00:14:36;100607.78;;;22.79;33.94
73003;BME280;61184;54.356;-8.550;2022-09-29T00:17:01;100611.05;;;22.63;34.10
73003;BME280;61184;54.356;-8.550;2022-09-29T00:19:26;100603.43;;;22.98;33.67
73003;BME280;61184;54.356;-8.550;2022-09-29T00:21:52;100604.09;;;22.72;33.97
73003;BME280;61184;54.356;-8.550;2022-09-29T00:24:17;100602.88;;;22.87;33.79
73003;BME280;61184;54.356;-8.550;2022-09-29T00:26:43;100605.01;;;22.86;33.83
73003;BME280;61184;54.356;-8.550;2022-09-29T00:29:09;100608.65;;;23.22;33.35
73003;BME280;61184;54.356;-8.550;2022-09-29T00:31:34;100609.87;;;22.92;33.71
73003;BME280;61184;54.356;-8.550;2022-09-29T00:33:59;100613.21;;;22.79;33.83
73003;BME280;61184;54.356;-8.550;2022-09-29T00:36:25;100612.12;;;22.82;33.83
73003;BME280;61184;54.356;-8.550;2022-09-29T00:38:51;100608.80;;;22.48;33.94
73003;BME280;61184;54.356;-8.550;2022-09-29T00:41:17;100607.30;;;22.93;33.68
73003;BME280;61184;54.356;-8.550;2022-09-29T00:43:49;100604.63;;;22.93;33.68
73003;BME280;61184;54.356;-8.550;2022-09-29T00:46:06;100612.08;;;22.78;33.85
73003;BME280;61184;54.356;-8.550;2022-09-29T00:48:32;100608.03;;;22.75;33.84
73003;BME280;61184;54.356;-8.550;2022-09-29T00:50:57;100605.96;;;23.12;33.41
73003;BME280;61184;54.356;-8.550;2022-09-29T00:53:24;100606.64;;;22.67;33.95
73003;BME280;61184;54.356;-8.550;2022-09-29T00:55:51;100606.61;;;22.32;34.07
73003;BME280;61184;54.356;-8.550;2022-09-29T00:58:20;100602.76;;;22.75;33.82
73003;BME280;61184;54.356;-8.550;2022-09-29T01:00:39;100605.07;;;22.88;33.66
73003;BME280;61184;54.356;-8.550;2022-09-29T01:03:07;100606.73;;;22.66;33.95
73003;BME280;61184;54.356;-8.550;2022-09-29T01:05:32;100597.76;;;22.43;33.85
73003;BME280;61184;54.356;-8.550;2022-09-29T01:07:55;100599.03;;;22.87;33.65
73003;BME280;61184;54.356;-8.550;2022-09-29T01:10:21;100600.74;;;22.67;33.88
73003;BME280;61184;54.356;-8.550;2022-09-29T01:12:47;100604.98;;;22.51;34.11
73003;BME280;61184;54.356;-8.550;2022-09-29T01:15:13;100607.12;;;22.93;33.61
73003;BME280;61184;54.356;-8.550;2022-09-29T01:17:37;100613.62;;;22.68;33.86
73003;BME280;61184;54.356;-8.550;2022-09-29T01:20:10;100611.24;;;22.79;33.72
73003;BME280;61184;54.356;-8.550;2022-09-29T01:22:44;100616.76;;;22.68;33.86
73003;BME280;61184;54.356;-8.550;2022-09-29T01:24:57;100620.37;;;22.44;33.83
73003;BME280;61184;54.356;-8.550;2022-09-29T01:27:25;100619.38;;;22.82;33.67
73003;BME280;61184;54.356;-8.550;2022-09-29T01:29:54;100621.36;;;22.56;34.01
73003;BME280;61184;54.356;-8.550;2022-09-29T01:32:16;100623.39;;;22.52;33.78
73003;BME280;61184;54.356;-8.550;2022-09-29T01:34:42;100624.47;;;22.61;33.91
73003;BME280;61184;54.356;-8.550;2022-09-29T01:37:07;100632.54;;;22.61;33.92
73003;BME280;61184;54.356;-8.550;2022-09-29T01:39:30;100637.76;;;22.64;33.94
73003;BME280;61184;54.356;-8.550;2022-09-29T01:41:54;100641.59;;;22.25;34.08
73003;BME280;61184;54.356;-8.550;2022-09-29T01:44:22;100644.99;;;22.67;34.20
73003;BME280;61184;54.356;-8.550;2022-09-29T01:46:46;100643.05;;;22.48;34.09
73003;BME280;61184;54.356;-8.550;2022-09-29T01:49:08;100641.43;;;22.49;34.08
73003;BME280;61184;54.356;-8.550;2022-09-29T01:51:39;100639.38;;;22.47;34.07
73003;BME280;61184;54.356;-8.550;2022-09-29T01:54:03;100637.97;;;22.14;34.18
73003;BME280;61184;54.356;-8.550;2022-09-29T01:56:28;100633.20;;;22.26;34.32
73003;BME280;61184;54.356;-8.550;2022-09-29T01:58:53;100634.32;;;22.57;33.95
73003;BME280;61184;54.356;-8.550;2022-09-29T02:01:15;100633.24;;;22.56;33.97
73003;BME280;61184;54.356;-8.550;2022-09-29T02:03:45;100628.91;;;22.44;34.07
73003;BME280;61184;54.356;-8.550;2022-09-29T02:06:09;100627.77;;;22.55;33.95
73003;BME280;61184;54.356;-8.550;2022-09-29T02:08:34;100628.53;;;22.50;34.01
73003;BME280;61184;54.356;-8.550;2022-09-29T02:11:00;100630.30;;;22.31;34.31
73003;BME280;61184;54.356;-8.550;2022-09-29T02:13:22;100631.34;;;22.35;34.20
73003;BME280;61184;54.356;-8.550;2022-09-29T02:15:49;100629.50;;;22.42;34.06
73003;BME280;61184;54.356;-8.550;2022-09-29T02:18:17;100631.84;;;22.56;33.83
73003;BME280;61184;54.356;-8.550;2022-09-29T02:20:38;100628.94;;;22.21;34.28
73003;BME280;61184;54.356;-8.550;2022-09-29T02:23:04;100632.32;;;22.48;34.00
73003;BME280;61184;54.356;-8.550;2022-09-29T02:25:30;100633.27;;;22.33;34.17
73003;BME280;61184;54.356;-8.550;2022-09-29T02:27:54;100633.75;;;22.22;34.37
73003;BME280;61184;54.356;-8.550;2022-09-29T02:30:20;100635.88;;;22.45;34.04
73003;BME280;61184;54.356;-8.550;2022-09-29T02:32:46;100637.23;;;22.47;33.95
73003;BME280;61184;54.356;-8.550;2022-09-29T02:35:13;100640.87;;;22.28;34.19
73003;BME280;61184;54.356;-8.550;2022-09-29T02:37:45;100644.00;;;22.24;34.21
73003;BME280;61184;54.356;-8.550;2022-09-29T02:40:13;100642.89;;;22.32;34.12
73003;BME280;61184;54.356;-8.550;2022-09-29T02:42:34;100642.29;;;22.31;34.09
73003;BME280;61184;54.356;-8.550;2022-09-29T02:45:05;100639.54;;;22.39;33.99
73003;BME280;61184;54.356;-8.550;2022-09-29T02:47:30;100643.45;;;22.26;34.16
73003;BME280;61184;54.356;-8.550;2022-09-29T02:49:56;100646.96;;;22.37;34.04
73003;BME280;61184;54.356;-8.550;2022-09-29T02:52:16;100647.30;;;22.61;33.99
73003;BME280;61184;54.356;-8.550;2022-09-29T02:54:45;100647.56;;;22.25;34.14
73003;BME280;61184;54.356;-8.550;2022-09-29T02:57:09;100654.32;;;22.58;34.04
73003;BME280;61184;54.356;-8.550;2022-09-29T02:59:32;100653.60;;;22.24;34.22
73003;BME280;61184;54.356;-8.550;2022-09-29T03:01:52;100655.49;;;22.39;34.05
73003;BME280;61184;54.356;-8.550;2022-09-29T03:04:16;100653.77;;;22.17;34.24
73003;BME280;61184;54.356;-8.550;2022-09-29T03:06:41;100651.72;;;22.47;34.24
73003;BME280;61184;54.356;-8.550;2022-09-29T03:09:07;100653.04;;;22.31;34.15
73003;BME280;61184;54.356;-8.550;2022-09-29T03:11:32;100652.78;;;22.40;34.24
73003;BME280;61184;54.356;-8.550;2022-09-29T03:13:58;100654.25;;;22.64;33.99
73003;BME280;61184;54.356;-8.550;2022-09-29T03:16:23;100654.45;;;22.24;34.09
73003;BME280;61184;54.356;-8.550;2022-09-29T03:18:49;100660.11;;;22.26;34.13
73003;BME280;61184;54.356;-8.550;2022-09-29T03:21:14;100667.51;;;22.36;33.96
73003;BME280;61184;54.356;-8.550;2022-09-29T03:23:40;100669.99;;;22.05;34.33
73003;BME280;61184;54.356;-8.550;2022-09-29T03:26:05;100671.07;;;22.15;34.19
73003;BME280;61184;54.356;-8.550;2022-09-29T03:28:30;100672.87;;;22.34;33.98
73003;BME280;61184;54.356;-8.550;2022-09-29T03:31:04;100675.09;;;22.25;34.12
73003;BME280;61184;54.356;-8.550;2022-09-29T03:33:21;100680.37;;;22.40;33.91
73003;BME280;61184;54.356;-8.550;2022-09-29T03:35:47;100677.81;;;22.23;34.15
73003;BME280;61184;54.356;-8.550;2022-09-29T03:38:13;100680.51;;;22.39;33.94
73003;BME280;61184;54.356;-8.550;2022-09-29T03:40:38;100686.96;;;22.46;33.76
73003;BME280;61184;54.356;-8.550;2022-09-29T03:43:03;100691.58;;;22.46;33.80
73003;BME280;61184;54.356;-8.550;2022-09-29T03:45:28;100693.60;;;22.32;34.01
73003;BME280;61184;54.356;-8.550;2022-09-29T03:47:54;100696.28;;;22.31;33.99
73003;BME280;61184;54.356;-8.550;2022-09-29T03:50:19;100696.58;;;22.39;33.84
73003;BME280;61184;54.356;-8.550;2022-09-29T03:52:45;100693.27;;;22.07;34.23
73003;BME280;61184;54.356;-8.550;2022-09-29T03:55:10;100685.54;;;22.19;34.14
73003;BME280;61184;54.356;-8.550;2022-09-29T03:57:36;100680.35;;;22.24;34.06
73003;BME280;61184;54.356;-8.550;2022-09-29T04:00:02;100679.63;;;21.91;34.15
73003;BME280;61184;54.356;-8.550;2022-09-29T04:02:27;100679.30;;;22.09;34.15
73003;BME280;61184;54.356;-8.550;2022-09-29T04:04:52;100681.99;;;21.94;34.40
73003;BME280;61184;54.356;-8.550;2022-09-29T04:07:17;100682.62;;;22.09;34.28
73003;BME280;61184;54.356;-8.550;2022-09-29T04:09:43;100688.29;;;21.82;34.60
73003;BME280;61184;54.356;-8.550;2022-09-29T04:12:08;100692.71;;;21.81;34.28
73003;BME280;61184;54.356;-8.550;2022-09-29T04:14:34;100694.43;;;21.93;34.39
73003;BME280;61184;54.356;-8.550;2022-09-29T04:16:59;100691.85;;;22.26;33.97
73003;BME280;61184;54.356;-8.550;2022-09-29T04:19:25;100692.16;;;22.04;34.31
73003;BME280;61184;54.356;-8.550;2022-09-29T04:21:50;100699.16;;;22.34;34.27
73003;BME280;61184;54.356;-8.550;2022-09-29T04:24:16;100700.99;;;22.12;34.13
73003;BME280;61184;54.356;-8.550;2022-09-29T04:26:41;100700.87;;;22.51;33.99
73003;BME280;61184;54.356;-8.550;2022-09-29T04:29:07;100699.97;;;21.95;34.33
73003;BME280;61184;54.356;-8.550;2022-09-29T04:31:32;100703.57;;;22.18;34.10
73003;BME280;61184;54.356;-8.550;2022-09-29T04:33:57;100706.23;;;22.02;34.26
73003;BME280;61184;54.356;-8.550;2022-09-29T04:36:23;100709.97;;;22.40;33.87
73003;BME280;61184;54.356;-8.550;2022-09-29T04:38:48;100706.85;;;21.98;34.25
73003;BME280;61184;54.356;-8.550;2022-09-29T04:41:14;100708.03;;;22.16;34.33
73003;BME280;61184;54.356;-8.550;2022-09-29T04:43:39;100709.10;;;22.32;33.90
73003;BME280;61184;54.356;-8.550;2022-09-29T04:46:06;100705.55;;;22.42;34.02
73003;BME280;61184;54.356;-8.550;2022-09-29T04:48:30;100708.60;;;21.93;34.41
73003;BME280;61184;54.356;-8.550;2022-09-29T04:50:55;100713.32;;;21.92;34.40
73003;BME280;61184;54.356;-8.550;2022-09-29T04:53:21;100716.26;;;22.21;34.27
73003;BME280;61184;54.356;-8.550;2022-09-29T04:55:46;100721.16;;;22.07;34.13
73003;BME280;61184;54.356;-8.550;2022-09-29T04:58:12;100724.78;;;22.69;33.64
73003;BME280;61184;54.356;-8.550;2022-09-29T05:00:37;100725.19;;;21.90;34.34
73003;BME280;61184;54.356;-8.550;2022-09-29T05:03:03;100727.57;;;22.11;34.11
73003;BME280;61184;54.356;-8.550;2022-09-29T05:05:28;100730.43;;;22.43;33.99
73003;BME280;61184;54.356;-8.550;2022-09-29T05:07:54;100733.69;;;22.10;34.41
73003;BME280;61184;54.356;-8.550;2022-09-29T05:10:19;100734.04;;;21.92;34.38
73003;BME280;61184;54.356;-8.550;2022-09-29T05:12:47;100730.50;;;22.40;34.12
73003;BME280;61184;54.356;-8.550;2022-09-29T05:15:10;100731.59;;;22.03;34.16
73003;BME280;61184;54.356;-8.550;2022-09-29T05:17:35;100733.67;;;22.43;33.97
73003;BME280;61184;54.356;-8.550;2022-09-29T05:20:01;100735.72;;;22.17;34.06
73003;BME280;61184;54.356;-8.550;2022-09-29T05:22:26;100735.54;;;21.91;34.31
73003;BME280;61184;54.356;-8.550;2022-09-29T05:24:52;100734.31;;;21.87;34.35
73003;BME280;61184;54.356;-8.550;2022-09-29T05:27:17;100740.40;;;22.16;34.08
73003;BME280;61184;54.356;-8.550;2022-09-29T05:29:42;100739.43;;;21.95;34.25
73003;BME280;61184;54.356;-8.550;2022-09-29T05:32:08;100742.25;;;22.31;34.16
73003;BME280;61184;54.356;-8.550;2022-09-29T05:34:34;100745.32;;;22.28;34.17
73003;BME280;61184;54.356;-8.550;2022-09-29T05:36:59;100749.55;;;22.24;33.87
73003;BME280;61184;54.356;-8.550;2022-09-29T05:39:24;100751.62;;;21.98;34.23
73003;BME280;61184;54.356;-8.550;2022-09-29T05:41:50;100751.89;;;22.24;34.16
73003;BME280;61184;54.356;-8.550;2022-09-29T05:44:15;100754.71;;;22.02;34.12
73003;BME280;61184;54.356;-8.550;2022-09-29T05:46:41;100757.91;;;22.05;34.10
73003;BME280;61184;54.356;-8.550;2022-09-29T05:49:06;100758.63;;;22.34;34.02
73003;BME280;61184;54.356;-8.550;2022-09-29T05:51:32;100759.84;;;21.59;34.06
73003;BME280;61184;54.356;-8.550;2022-09-29T05:53:57;100759.77;;;22.19;33.90
73003;BME280;61184;54.356;-8.550;2022-09-29T05:56:24;100757.07;;;21.99;34.25
73003;BME280;61184;54.356;-8.550;2022-09-29T05:58:49;100760.03;;;22.10;34.07
73003;BME280;61184;54.356;-8.550;2022-09-29T06:01:15;100764.37;;;22.09;33.95
73003;BME280;61184;54.356;-8.550;2022-09-29T06:03:39;100768.64;;;22.19;33.84
73003;BME280;61184;54.356;-8.550;2022-09-29T06:06:06;100777.51;;;22.13;34.25
73003;BME280;61184;54.356;-8.550;2022-09-29T06:08:30;100785.52;;;22.16;34.26
73003;BME280;61184;54.356;-8.550;2022-09-29T06:11:02;100792.52;;;22.32;34.01
73003;BME280;61184;54.356;-8.550;2022-09-29T06:13:21;100796.57;;;22.13;34.33
73003;BME280;61184;54.356;-8.550;2022-09-29T06:15:46;100800.47;;;22.36;33.95
73003;BME280;61184;54.356;-8.550;2022-09-29T06:18:11;100797.80;;;22.03;34.13
73003;BME280;61184;54.356;-8.550;2022-09-29T06:20:37;100801.29;;;22.08;34.35
73003;BME280;61184;54.356;-8.550;2022-09-29T06:23:03;100805.11;;;22.00;34.15
73003;BME280;61184;54.356;-8.550;2022-09-29T06:25:28;100804.39;;;21.89;34.42
73003;BME280;61184;54.356;-8.550;2022-09-29T06:27:53;100804.58;;;22.18;34.27
73003;BME280;61184;54.356;-8.550;2022-09-29T06:30:19;100802.10;;;22.15;34.36
73003;BME280;61184;54.356;-8.550;2022-09-29T06:32:45;100801.24;;;22.08;34.16
73003;BME280;61184;54.356;-8.550;2022-09-29T06:35:10;100801.11;;;22.08;34.33
73003;BME280;61184;54.356;-8.550;2022-09-29T06:37:35;100799.72;;;22.24;34.45
73003;BME280;61184;54.356;-8.550;2022-09-29T06:40:01;100802.09;;;22.24;34.39
73003;BME280;61184;54.356;-8.550;2022-09-29T06:42:26;100800.53;;;22.08;34.69
73003;BME280;61184;54.356;-8.550;2022-09-29T06:44:51;100799.11;;;21.90;34.53
73003;BME280;61184;54.356;-8.550;2022-09-29T06:47:17;100797.96;;;21.89;34.45
73003;BME280;61184;54.356;-8.550;2022-09-29T06:49:42;100796.57;;;22.28;34.37
73003;BME280;61184;54.356;-8.550;2022-09-29T06:52:08;100801.74;;;21.91;34.55
73003;BME280;61184;54.356;-8.550;2022-09-29T06:54:33;100803.59;;;21.71;34.69
73003;BME280;61184;54.356;-8.550;2022-09-29T06:56:59;100806.27;;;21.78;35.40
73003;BME280;61184;54.356;-8.550;2022-09-29T06:59:24;100809.57;;;21.23;36.81
73003;BME280;61184;54.356;-8.550;2022-09-29T07:01:50;100808.40;;;22.09;35.58
73003;BME280;61184;54.356;-8.550;2022-09-29T07:04:15;100807.59;;;21.94;35.62
73003;BME280;61184;54.356;-8.550;2022-09-29T07:06:40;100812.61;;;21.83;35.77
73003;BME280;61184;54.356;-8.550;2022-09-29T07:09:06;100820.22;;;21.60;35.64
73003;BME280;61184;54.356;-8.550;2022-09-29T07:11:31;100818.69;;;21.75;35.33
73003;BME280;61184;54.356;-8.550;2022-09-29T07:13:57;100815.32;;;22.30;34.83
73003;BME280;61184;54.356;-8.550;2022-09-29T07:16:23;100810.00;;;21.94;35.37
73003;BME280;61184;54.356;-8.550;2022-09-29T07:18:48;100807.57;;;21.87;35.13
73003;BME280;61184;54.356;-8.550;2022-09-29T07:21:14;100807.50;;;22.46;34.92
73003;BME280;61184;54.356;-8.550;2022-09-29T07:23:38;100812.09;;;22.12;34.63
73003;BME280;61184;54.356;-8.550;2022-09-29T07:26:05;100813.50;;;22.12;34.45
73003;BME280;61184;54.356;-8.550;2022-09-29T07:28:30;100812.08;;;22.17;34.47
73003;BME280;61184;54.356;-8.550;2022-09-29T07:30:59;100814.49;;;22.27;34.37
73003;BME280;61184;54.356;-8.550;2022-09-29T07:33:20;100814.31;;;22.25;34.36
73003;BME280;61184;54.356;-8.550;2022-09-29T07:35:46;100819.76;;;22.30;34.24
73003;BME280;61184;54.356;-8.550;2022-09-29T07:38:11;100824.67;;;22.35;34.19
73003;BME280;61184;54.356;-8.550;2022-09-29T07:40:36;100827.15;;;22.59;34.19
73003;BME280;61184;54.356;-8.550;2022-09-29T07:43:02;100825.58;;;22.49;34.32
73003;BME280;61184;54.356;-8.550;2022-09-29T07:45:27;100826.63;;;22.30;34.29
73003;BME280;61184;54.356;-8.550;2022-09-29T07:47:55;100824.34;;;22.47;34.36
73003;BME280;61184;54.356;-8.550;2022-09-29T07:50:19;100824.18;;;22.40;34.11
73003;BME280;61184;54.356;-8.550;2022-09-29T07:52:45;100819.72;;;22.50;33.94
73003;BME280;61184;54.356;-8.550;2022-09-29T07:55:09;100824.64;;;22.48;33.95
73003;BME280;61184;54.356;-8.550;2022-09-29T07:57:35;100830.48;;;22.34;34.21
73003;BME280;61184;54.356;-8.550;2022-09-29T08:00:00;100832.19;;;22.66;34.06
73003;BME280;61184;54.356;-8.550;2022-09-29T08:02:25;100834.63;;;22.35;34.18
73003;BME280;61184;54.356;-8.550;2022-09-29T08:04:51;100832.02;;;22.22;34.31
73003;BME280;61184;54.356;-8.550;2022-09-29T08:07:16;100829.87;;;22.30;34.21
73003;BME280;61184;54.356;-8.550;2022-09-29T08:09:42;100830.14;;;22.55;34.15
73003;BME280;61184;54.356;-8.550;2022-09-29T08:12:07;100835.22;;;22.58;34.14
73003;BME280;61184;54.356;-8.550;2022-09-29T08:14:32;100840.40;;;22.66;34.05
73003;BME280;61184;54.356;-8.550;2022-09-29T08:16:58;100846.63;;;22.34;34.17
73003;BME280;61184;54.356;-8.550;2022-09-29T08:19:23;100848.39;;;22.62;34.11
73003;BME280;61184;54.356;-8.550;2022-09-29T08:21:49;100850.52;;;22.46;34.33
73003;BME280;61184;54.356;-8.550;2022-09-29T08:24:15;100854.35;;;22.52;34.27
73003;BME280;61184;54.356;-8.550;2022-09-29T08:26:40;100853.82;;;22.28;34.26
73003;BME280;61184;54.356;-8.550;2022-09-29T08:29:06;100857.21;;;22.30;34.25
73003;BME280;61184;54.356;-8.550;2022-09-29T08:31:31;100859.45;;;22.38;34.10
73003;BME280;61184;54.356;-8.550;2022-09-29T08:33:57;100858.45;;;22.58;34.17
73003;BME280;61184;54.356;-8.550;2022-09-29T08:36:21;100860.44;;;22.12;34.17
73003;BME280;61184;54.356;-8.550;2022-09-29T08:38:49;100862.72;;;22.44;34.06
73003;BME280;61184;54.356;-8.550;2022-09-29T08:41:24;100866.93;;;22.67;34.06
73003;BME280;61184;54.356;-8.550;2022-09-29T08:43:41;100867.10;;;22.34;34.17
73003;BME280;61184;54.356;-8.550;2022-09-29T08:46:08;100865.92;;;22.42;34.09
73003;BME280;61184;54.356;-8.550;2022-09-29T08:48:32;100863.66;;;22.38;34.13
73003;BME280;61184;54.356;-8.550;2022-09-29T08:50:57;100862.58;;;22.22;34.03
73003;BME280;61184;54.356;-8.550;2022-09-29T08:53:21;100865.56;;;22.35;34.17
73003;BME280;61184;54.356;-8.550;2022-09-29T08:55:49;100872.13;;;22.75;33.97
73003;BME280;61184;54.356;-8.550;2022-09-29T08:58:12;100874.76;;;22.63;34.10
73003;BME280;61184;54.356;-8.550;2022-09-29T09:00:42;100872.00;;;22.75;33.96
73003;BME280;61184;54.356;-8.550;2022-09-29T09:03:13;100870.68;;;22.66;34.08
73003;BME280;61184;54.356;-8.550;2022-09-29T09:05:38;100875.93;;;22.45;34.06
73003;BME280;61184;54.356;-8.550;2022-09-29T09:07:59;100885.34;;;22.47;34.04
73003;BME280;61184;54.356;-8.550;2022-09-29T09:10:26;100893.04;;;22.53;33.99
73003;BME280;61184;54.356;-8.550;2022-09-29T09:12:52;100891.95;;;22.56;33.95
73003;BME280;61184;54.356;-8.550;2022-09-29T09:15:25;100890.43;;;22.48;34.08
73003;BME280;61184;54.356;-8.550;2022-09-29T09:17:48;100891.32;;;22.52;34.06
73003;BME280;61184;54.356;-8.550;2022-09-29T09:20:11;100893.01;;;22.51;34.06
73003;BME280;61184;54.356;-8.550;2022-09-29T09:22:32;100894.19;;;22.59;34.01
73003;BME280;61184;54.356;-8.550;2022-09-29T09:24:56;100893.10;;;22.42;34.22
73003;BME280;61184;54.356;-8.550;2022-09-29T09:27:20;100891.83;;;22.52;34.11
73003;BME280;61184;54.356;-8.550;2022-09-29T09:29:42;100889.81;;;22.61;34.04
73003;BME280;61184;54.356;-8.550;2022-09-29T09:32:09;100893.16;;;22.53;34.16
73003;BME280;61184;54.356;-8.550;2022-09-29T09:34:35;100892.88;;;22.56;34.15
73003;BME280;61184;54.356;-8.550;2022-09-29T09:37:00;100892.48;;;22.66;34.02
73003;BME280;61184;54.356;-8.550;2022-09-29T09:39:28;100891.00;;;22.52;34.23
73003;BME280;61184;54.356;-8.550;2022-09-29T09:41:51;100889.29;;;22.52;34.24
73003;BME280;61184;54.356;-8.550;2022-09-29T09:44:16;100888.29;;;22.67;34.07
73003;BME280;61184;54.356;-8.550;2022-09-29T09:46:44;100883.30;;;22.63;34.14
73003;BME280;61184;54.356;-8.550;2022-09-29T09:49:13;100883.10;;;22.84;34.16
73003;BME280;61184;54.356;-8.550;2022-09-29T09:51:36;100882.40;;;22.69;34.08
73003;BME280;61184;54.356;-8.550;2022-09-29T09:53:59;100889.42;;;22.57;34.25
73003;BME280;61184;54.356;-8.550;2022-09-29T09:56:26;100893.18;;;22.66;34.14
73003;BME280;61184;54.356;-8.550;2022-09-29T09:59:05;100891.03;;;22.59;34.26
73003;BME280;61184;54.356;-8.550;2022-09-29T10:01:12;100881.39;;;22.88;34.18
73003;BME280;61184;54.356;-8.550;2022-09-29T10:03:38;100877.35;;;22.84;34.23
73003;BME280;61184;54.356;-8.550;2022-09-29T10:06:06;100884.74;;;22.74;34.07
73003;BME280;61184;54.356;-8.550;2022-09-29T10:08:31;100889.17;;;23.04;34.00
73003;BME280;61184;54.356;-8.550;2022-09-29T10:10:56;100888.02;;;22.73;34.10
73003;BME280;61184;54.356;-8.550;2022-09-29T10:13:20;100889.56;;;22.50;34.08
73003;BME280;61184;54.356;-8.550;2022-09-29T10:15:49;100898.05;;;22.67;34.19
73003;BME280;61184;54.356;-8.550;2022-09-29T10:18:13;100899.70;;;22.59;34.26
73003;BME280;61184;54.356;-8.550;2022-09-29T10:20:37;100900.22;;;22.79;34.05
73003;BME280;61184;54.356;-8.550;2022-09-29T10:23:18;100898.86;;;22.69;34.16
73003;BME280;61184;54.356;-8.550;2022-09-29T10:25:27;100901.24;;;22.66;34.20
73003;BME280;61184;54.356;-8.550;2022-09-29T10:27:54;100900.01;;;22.57;34.33
73003;BME280;61184;54.356;-8.550;2022-09-29T10:30:22;100893.53;;;22.64;34.23
73003;BME280;61184;54.356;-8.550;2022-09-29T10:32:43;100888.63;;;22.77;34.06
73003;BME280;61184;54.356;-8.550;2022-09-29T10:35:15;100884.18;;;22.75;34.11
73003;BME280;61184;54.356;-8.550;2022-09-29T10:37:36;100883.08;;;22.66;34.22
73003;BME280;61184;54.356;-8.550;2022-09-29T10:40:08;100884.78;;;22.63;34.26
73003;BME280;61184;54.356;-8.550;2022-09-29T10:42:30;100886.51;;;22.70;34.15
73003;BME280;61184;54.356;-8.550;2022-09-29T10:44:52;100887.65;;;22.71;34.12
73003;BME280;61184;54.356;-8.550;2022-09-29T10:47:16;100887.24;;;22.72;34.15
73003;BME280;61184;54.356;-8.550;2022-09-29T10:49:41;100881.57;;;22.66;34.22
73003;BME280;61184;54.356;-8.550;2022-09-29T10:52:20;100882.23;;;23.10;33.99
73003;BME280;61184;54.356;-8.550;2022-09-29T10:54:34;100887.69;;;22.74;34.16
73003;BME280;61184;54.356;-8.550;2022-09-29T10:56:58;100891.54;;;22.79;34.08
73003;BME280;61184;54.356;-8.550;2022-09-29T10:59:24;100890.66;;;22.78;34.11
73003;BME280;61184;54.356;-8.550;2022-09-29T11:01:50;100887.75;;;22.65;34.27
73003;BME280;61184;54.356;-8.550;2022-09-29T11:04:17;100889.29;;;22.81;34.06
73003;BME280;61184;54.356;-8.550;2022-09-29T11:06:40;100890.61;;;22.77;34.12
73003;BME280;61184;54.356;-8.550;2022-09-29T11:09:24;100885.17;;;22.46;34.22
73003;BME280;61184;54.356;-8.550;2022-09-29T11:11:31;100877.28;;;22.91;33.97
73003;BME280;61184;54.356;-8.550;2022-09-29T11:13:57;100876.72;;;22.75;34.16
73003;BME280;61184;54.356;-8.550;2022-09-29T11:16:27;100885.88;;;22.61;34.06
73003;BME280;61184;54.356;-8.550;2022-09-29T11:18:49;100896.00;;;22.90;33.98
73003;BME280;61184;54.356;-8.550;2022-09-29T11:23:41;100899.32;;;22.87;34.02
73003;BME280;61184;54.356;-8.550;2022-09-29T11:26:15;100899.47;;;22.89;34.01
73003;BME280;61184;54.356;-8.550;2022-09-29T11:28:43;100899.99;;;22.90;34.01
73003;BME280;61184;54.356;-8.550;2022-09-29T11:31:02;100894.17;;;22.87;34.04
73003;BME280;61184;54.356;-8.550;2022-09-29T11:33:27;100889.42;;;22.81;34.12
73003;BME280;61184;54.356;-8.550;2022-09-29T11:35:51;100885.68;;;22.92;33.99
73003;BME280;61184;54.356;-8.550;2022-09-29T11:38:23;100885.00;;;22.98;33.95
73003;BME280;61184;54.356;-8.550;2022-09-29T11:40:43;100889.94;;;22.68;33.99
73003;BME280;61184;54.356;-8.550;2022-09-29T11:43:14;100895.01;;;23.18;34.00
73003;BME280;61184;54.356;-8.550;2022-09-29T11:45:33;100897.62;;;22.96;33.97
73003;BME280;61184;54.356;-8.550;2022-09-29T11:48:10;100894.08;;;22.99;33.94
73003;BME280;61184;54.356;-8.550;2022-09-29T11:50:24;100892.05;;;22.96;33.96
73003;BME280;61184;54.356;-8.550;2022-09-29T11:52:59;100889.39;;;23.01;33.92
73003;BME280;61184;54.356;-8.550;2022-09-29T11:57:43;100899.45;;;23.00;33.91
73003;BME280;61184;54.356;-8.550;2022-09-29T12:00:04;100912.68;;;23.07;33.82
73003;BME280;61184;54.356;-8.550;2022-09-29T12:02:38;100925.32;;;23.09;33.80
73003;BME280;61184;54.356;-8.550;2022-09-29T12:04:55;100935.56;;;23.05;33.87
73003;BME280;61184;54.356;-8.550;2022-09-29T12:07:25;100936.49;;;23.11;33.81
73003;BME280;61184;54.356;-8.550;2022-09-29T12:09:57;100931.57;;;23.08;33.87
73003;BME280;61184;54.356;-8.550;2022-09-29T12:12:10;100928.47;;;22.83;33.86
73003;BME280;61184;54.356;-8.550;2022-09-29T12:14:37;100932.64;;;23.10;33.85
73003;BME280;61184;54.356;-8.550;2022-09-29T12:17:00;100936.89;;;23.09;33.85
73003;BME280;61184;54.356;-8.550;2022-09-29T12:19:25;100937.61;;;23.07;33.89
73003;BME280;61184;54.356;-8.550;2022-09-29T12:21:50;100933.98;;;23.03;33.94
73003;BME280;61184;54.356;-8.550;2022-09-29T12:24:16;100930.21;;;22.99;34.04
73003;BME280;61184;54.356;-8.550;2022-09-29T12:26:39;100921.51;;;22.96;34.05
73003;BME280;61184;54.356;-8.550;2022-09-29T12:29:10;100917.65;;;23.05;33.96
73003;BME280;61184;54.356;-8.550;2022-09-29T12:31:33;100918.52;;;23.04;33.98
73003;BME280;61184;54.356;-8.550;2022-09-29T12:33:58;100920.94;;;23.14;33.87